Time;durP1;ratioP1;P1;durP2;ratioP2;P2;SDS_P1;SDS_P2;PMS_P1;PMS_P2;Temp;Humidity;BMP_temperature;BMP_pressure;BME280_temperature;BME280_humidity;BME280_pressure;Samples;Min_cycle;Max_cycle;Signal;HPM_P1;HPM_P2
2022/09/18 00:00:08;;;;;;;1.87;0.90;;;;;;;10.09;83.72;95533.50;5001034;28;20207;-81
2022/09/18 00:02:35;;;;;;;3.90;1.00;;;;;;;10.03;83.51;95529.84;5001836;28;20238;-81
2022/09/18 00:05:01;;;;;;;1.70;0.90;;;;;;;10.12;83.78;95532.38;5018158;28;20292;-81
2022/09/18 00:07:27;;;;;;;3.30;1.00;;;;;;;10.11;83.55;95538.47;5021578;28;20636;-81
2022/09/18 00:09:55;;;;;;;2.00;1.00;;;;;;;10.08;82.72;95536.25;5021232;28;20206;-81
2022/09/18 00:12:22;;;;;;;1.77;0.80;;;;;;;10.11;83.41;95533.34;5019107;28;20199;-81
2022/09/18 00:14:48;;;;;;;2.33;0.97;;;;;;;10.08;82.83;95529.34;5020210;28;20626;-81
2022/09/18 00:17:15;;;;;;;1.93;0.80;;;;;;;10.10;82.35;95529.16;5020574;28;20294;-81
2022/09/18 00:19:41;;;;;;;5.20;1.13;;;;;;;10.04;83.42;95534.03;5020835;28;20222;-81
2022/09/18 00:22:07;;;;;;;2.30;1.03;;;;;;;10.06;82.44;95536.41;5017278;28;20203;-81
2022/09/18 00:24:34;;;;;;;2.00;0.80;;;;;;;9.99;82.60;95544.06;5001047;28;20786;-81
2022/09/18 00:27:02;;;;;;;1.83;1.00;;;;;;;10.04;82.68;95540.94;4999445;28;20236;-81
2022/09/18 00:29:28;;;;;;;1.47;1.10;;;;;;;10.10;82.58;95540.25;4999838;28;20208;-81
2022/09/18 00:31:54;;;;;;;1.00;0.80;;;;;;;10.12;82.17;95538.31;4999334;28;20215;-81
2022/09/18 00:34:21;;;;;;;2.20;1.03;;;;;;;10.14;82.55;95536.38;5000032;28;20210;-81
2022/09/18 00:36:47;;;;;;;1.40;0.90;;;;;;;10.17;82.01;95536.03;4998698;28;20299;-81
2022/09/18 00:39:14;;;;;;;2.30;1.13;;;;;;;10.16;81.94;95544.72;5000657;28;20227;-81
2022/09/18 00:41:42;;;;;;;1.20;0.90;;;;;;;10.13;82.67;95547.63;4999561;28;20207;-81
2022/09/18 00:44:33;;;;;;;2.37;1.20;;;;;;;10.01;82.27;95549.81;4999674;28;20207;-81
2022/09/18 00:47:06;;;;;;;2.27;1.07;;;;;;;10.07;82.06;95539.78;4999436;28;20251;-81
2022/09/18 00:49:33;;;;;;;2.43;1.13;;;;;;;10.09;81.76;95540.44;4999788;28;20213;-81
2022/09/18 00:52:01;;;;;;;2.93;1.00;;;;;;;9.97;82.19;95542.63;4998639;28;20204;-81
2022/09/18 00:54:33;;;;;;;2.40;0.90;;;;;;;10.02;81.55;95540.31;5002012;28;20730;-81
2022/09/18 00:57:04;;;;;;;1.40;0.70;;;;;;;10.01;81.62;95536.94;5000257;28;20239;-81
2022/09/18 00:59:34;;;;;;;1.80;1.27;;;;;;;10.05;81.05;95535.63;5000115;28;20289;-81
2022/09/18 01:02:01;;;;;;;1.90;1.03;;;;;;;10.03;80.47;95547.84;4999853;28;20587;-81
2022/09/18 01:04:29;;;;;;;1.20;0.80;;;;;;;10.11;80.63;95541.06;5013619;28;20218;-81
2022/09/18 01:07:01;;;;;;;1.57;1.10;;;;;;;10.17;79.89;95542.94;5019549;28;20230;-80
2022/09/18 01:09:34;;;;;;;1.10;0.90;;;;;;;10.24;79.82;95551.56;5019817;28;20229;-81
2022/09/18 01:12:06;;;;;;;1.13;0.97;;;;;;;10.25;79.63;95560.88;5019779;28;20674;-81
2022/09/18 01:14:41;;;;;;;1.93;1.07;;;;;;;10.26;79.02;95552.19;5020405;28;20252;-81
2022/09/18 01:17:15;;;;;;;1.50;0.90;;;;;;;10.23;79.05;95566.22;5019905;28;20226;-81
2022/09/18 01:20:18;;;;;;;2.13;1.20;;;;;;;10.25;79.24;95561.69;5020082;28;20226;-81
2022/09/18 01:22:57;;;;;;;0.90;0.90;;;;;;;10.12;79.39;95560.66;5011388;28;20199;-81
2022/09/18 01:25:33;;;;;;;2.47;1.10;;;;;;;10.01;79.59;95561.84;4999446;28;20232;-81
2022/09/18 01:28:13;;;;;;;1.33;0.90;;;;;;;10.04;80.21;95564.09;5000249;28;20203;-81
2022/09/18 01:30:43;;;;;;;1.27;0.97;;;;;;;10.14;80.12;95572.38;4998752;28;20253;-81
2022/09/18 01:33:17;;;;;;;1.73;1.10;;;;;;;10.07;80.49;95560.38;5000554;28;20210;-81
2022/09/18 01:35:49;;;;;;;1.47;0.90;;;;;;;10.15;80.11;95561.13;4999564;28;20289;-81
2022/09/18 01:38:20;;;;;;;1.73;0.90;;;;;;;10.13;81.52;95559.69;4999938;28;20215;-80
2022/09/18 01:40:50;;;;;;;3.03;1.10;;;;;;;10.13;81.73;95559.69;5000161;28;20207;-81
2022/09/18 01:43:20;;;;;;;2.33;1.20;;;;;;;10.12;81.88;95552.94;5000924;28;20200;-81
2022/09/18 01:45:50;;;;;;;2.00;1.03;;;;;;;10.19;81.77;95549.53;5000099;28;20239;-81
2022/09/18 01:48:21;;;;;;;1.63;1.20;;;;;;;10.12;82.45;95555.50;4999510;28;20199;-81
2022/09/18 01:50:54;;;;;;;2.00;1.00;;;;;;;10.18;82.76;95557.41;5000181;28;20631;-81
2022/09/18 01:53:24;;;;;;;1.83;0.90;;;;;;;10.17;82.41;95556.59;5002040;28;20253;-81
2022/09/18 01:55:56;;;;;;;1.00;0.90;;;;;;;10.17;82.87;95555.81;5001144;28;20231;-81
2022/09/18 01:58:28;;;;;;;1.37;0.90;;;;;;;10.12;83.47;95556.31;5000573;28;20227;-81
2022/09/18 02:00:58;;;;;;;1.50;0.97;;;;;;;10.14;83.21;95558.72;5000786;28;20307;-81
2022/09/18 02:03:31;;;;;;;1.60;1.00;;;;;;;10.13;83.51;95554.53;5005150;28;20202;-81
2022/09/18 02:06:01;;;;;;;2.23;1.00;;;;;;;10.02;84.01;95551.41;5019935;28;20235;-81
2022/09/18 02:08:31;;;;;;;1.97;1.17;;;;;;;10.09;83.52;95548.94;5020500;28;20199;-81
2022/09/18 02:11:01;;;;;;;1.43;1.07;;;;;;;10.10;84.28;95552.31;5019039;28;20698;-81
2022/09/18 02:13:41;;;;;;;1.50;1.03;;;;;;;10.19;84.05;95544.41;5019760;28;20202;-81
2022/09/18 02:16:16;;;;;;;0.97;0.90;;;;;;;10.21;83.30;95551.91;5019100;28;20242;-81
2022/09/18 02:18:46;;;;;;;3.20;1.10;;;;;;;10.20;83.66;95548.53;5020002;28;20226;-81
2022/09/18 02:21:17;;;;;;;2.10;1.07;;;;;;;10.25;83.41;95546.25;5019534;28;20207;-81
2022/09/18 02:23:45;;;;;;;1.07;0.80;;;;;;;10.17;83.14;95536.03;5004703;28;20200;-81
2022/09/18 02:26:14;;;;;;;3.13;1.10;;;;;;;10.28;82.55;95539.97;5000817;28;20309;-81
2022/09/18 02:28:43;;;;;;;2.50;1.10;;;;;;;10.35;83.39;95543.44;5001833;28;20199;-81
2022/09/18 02:31:11;;;;;;;3.17;1.10;;;;;;;10.29;82.63;95533.84;5000279;28;20203;-81
2022/09/18 02:33:38;;;;;;;2.40;1.20;;;;;;;10.27;82.92;95546.88;5001494;28;20226;-81
2022/09/18 02:36:36;;;;;;;2.20;1.00;;;;;;;10.30;82.46;95538.81;5003101;28;20255;-81
2022/09/18 02:39:15;;;;;;;1.83;1.00;;;;;;;10.20;82.60;95538.25;5003300;28;20231;-81
2022/09/18 02:41:47;;;;;;;1.33;0.80;;;;;;;10.22;83.24;95546.59;5004100;28;20266;-81
2022/09/18 02:44:19;;;;;;;1.97;1.10;;;;;;;10.17;83.17;95538.59;5003602;28;20210;-81
2022/09/18 02:46:57;;;;;;;3.10;0.97;;;;;;;10.12;83.85;95538.31;5002859;28;20239;-81
2022/09/18 02:49:35;;;;;;;1.60;1.00;;;;;;;10.21;83.69;95532.13;5003755;28;20208;-81
2022/09/18 02:52:06;;;;;;;1.33;0.90;;;;;;;10.29;83.38;95528.69;5001658;28;20235;-81
2022/09/18 02:54:38;;;;;;;1.20;1.10;;;;;;;10.32;82.83;95526.56;5005159;28;20207;-81
2022/09/18 02:57:12;;;;;;;3.10;1.10;;;;;;;10.36;83.01;95527.03;5004744;28;20228;-81
2022/09/18 02:59:45;;;;;;;1.27;1.00;;;;;;;10.30;83.61;95530.28;5002956;28;20291;-81
2022/09/18 03:02:11;;;;;;;2.37;1.17;;;;;;;10.30;83.21;95525.16;5002393;28;20206;-81
2022/09/18 03:04:38;;;;;;;1.87;1.10;;;;;;;10.21;83.27;95532.13;5017051;28;20199;-81
2022/09/18 03:07:04;;;;;;;3.33;1.20;;;;;;;10.25;83.73;95524.88;5021656;28;20235;-81
2022/09/18 03:09:33;;;;;;;2.63;1.40;;;;;;;10.36;83.46;95527.81;5022899;28;20459;-81
2022/09/18 03:12:00;;;;;;;1.97;1.10;;;;;;;10.40;82.98;95523.09;5021940;28;20235;-81
2022/09/18 03:14:27;;;;;;;3.77;1.20;;;;;;;10.38;83.10;95522.50;5021889;28;20207;-81
2022/09/18 03:16:54;;;;;;;2.20;1.10;;;;;;;10.33;83.31;95533.31;5021504;28;20284;-81
2022/09/18 03:19:21;;;;;;;3.00;1.27;;;;;;;10.38;83.02;95525.06;5022388;28;20389;-81
2022/09/18 03:21:49;;;;;;;1.60;1.10;;;;;;;10.42;82.99;95536.59;5021955;28;20206;-81
2022/09/18 03:24:16;;;;;;;2.30;1.13;;;;;;;10.41;82.71;95524.69;5002389;28;20203;-81
2022/09/18 03:26:43;;;;;;;2.80;1.20;;;;;;;10.50;82.13;95522.84;5002867;28;20227;-81
2022/09/18 03:29:10;;;;;;;2.47;1.10;;;;;;;10.44;82.05;95526.94;5002143;28;20208;-80
2022/09/18 03:31:36;;;;;;;1.33;1.20;;;;;;;10.47;82.16;95524.00;5002446;28;20207;-80
2022/09/18 03:34:05;;;;;;;3.47;1.30;;;;;;;10.47;81.93;95536.88;5002361;28;20204;-80
2022/09/18 03:36:31;;;;;;;2.60;1.13;;;;;;;10.45;81.42;95530.31;5002132;28;20715;-80
2022/09/18 03:38:58;;;;;;;2.67;1.00;;;;;;;10.41;82.05;95529.03;5003230;28;20234;-80
2022/09/18 03:41:25;;;;;;;2.33;1.30;;;;;;;10.34;82.48;95534.91;5003525;28;20207;-80
2022/09/18 03:43:51;;;;;;;2.00;1.10;;;;;;;10.28;83.44;95537.38;5003561;28;20214;-79
2022/09/18 03:46:22;;;;;;;1.10;0.90;;;;;;;10.30;83.08;95527.72;5002421;28;20236;-80
2022/09/18 03:48:48;;;;;;;2.23;1.03;;;;;;;10.36;83.13;95535.53;5003723;28;20227;-80
2022/09/18 03:51:16;;;;;;;1.13;0.97;;;;;;;10.36;82.54;95539.91;5001418;28;20207;-79
2022/09/18 03:53:44;;;;;;;2.20;1.53;;;;;;;10.33;83.33;95535.09;5003775;28;20211;-80
2022/09/18 03:56:10;;;;;;;4.50;1.10;;;;;;;10.34;82.85;95541.84;5004815;28;20235;-80
2022/09/18 03:58:37;;;;;;;1.10;1.00;;;;;;;10.30;83.32;95535.44;5003030;28;20293;-78
2022/09/18 04:01:03;;;;;;;4.17;1.33;;;;;;;10.34;83.64;95532.34;5002595;28;20204;-79
2022/09/18 04:03:30;;;;;;;1.17;1.10;;;;;;;10.39;83.43;95529.25;5007629;28;20230;-79
2022/09/18 04:05:56;;;;;;;2.43;1.20;;;;;;;10.33;83.45;95532.53;5021716;28;20645;-79
2022/09/18 04:08:24;;;;;;;1.60;1.00;;;;;;;10.37;82.72;95531.19;5022548;28;20203;-79
2022/09/18 04:10:51;;;;;;;3.73;1.30;;;;;;;10.33;82.89;95527.38;5021952;28;20884;-80
2022/09/18 04:13:17;;;;;;;2.27;1.40;;;;;;;10.44;82.49;95533.84;5021697;28;20237;-79
2022/09/18 04:15:46;;;;;;;2.13;1.00;;;;;;;10.35;82.27;95535.72;5021892;28;20245;-79
2022/09/18 04:18:13;;;;;;;1.27;1.07;;;;;;;10.37;82.53;95534.56;5022124;28;20228;-79
2022/09/18 04:20:39;;;;;;;4.33;1.37;;;;;;;10.39;81.91;95527.44;5021328;28;20273;-79
2022/09/18 04:23:06;;;;;;;3.53;1.40;;;;;;;10.39;82.09;95534.41;5011045;28;20196;-79
2022/09/18 04:25:34;;;;;;;1.47;1.00;;;;;;;10.42;81.85;95538.38;5001863;28;20274;-80
2022/09/18 04:28:00;;;;;;;1.63;1.10;;;;;;;10.45;81.18;95527.72;5001963;28;20203;-78
2022/09/18 04:30:27;;;;;;;2.27;1.07;;;;;;;10.48;81.37;95530.75;5000938;28;20246;-78
2022/09/18 04:32:53;;;;;;;1.53;1.10;;;;;;;10.55;81.77;95541.94;5001993;28;20203;-80
2022/09/18 04:35:19;;;;;;;2.33;1.10;;;;;;;10.53;81.85;95535.38;5000792;28;20289;-80
2022/09/18 04:37:46;;;;;;;2.63;1.30;;;;;;;10.42;82.14;95540.94;5002721;28;20195;-78
2022/09/18 04:40:12;;;;;;;1.97;0.90;;;;;;;10.34;82.14;95539.25;5001708;28;20282;-80
2022/09/18 04:42:40;;;;;;;3.40;1.20;;;;;;;10.42;81.94;95540.94;5001424;28;20578;-79
2022/09/18 04:45:09;;;;;;;1.57;1.10;;;;;;;10.44;82.25;95544.94;5000875;28;20234;-78
2022/09/18 04:47:36;;;;;;;1.93;1.00;;;;;;;10.50;82.38;95539.09;5001477;28;20204;-80
2022/09/18 04:50:03;;;;;;;3.67;1.00;;;;;;;10.51;81.49;95539.91;5001317;28;20258;-79
2022/09/18 04:52:29;;;;;;;2.40;1.10;;;;;;;10.47;81.57;95534.28;5000341;28;20209;-78
2022/09/18 04:54:56;;;;;;;3.23;1.20;;;;;;;10.46;81.66;95545.56;5002933;28;20211;-79
2022/09/18 04:57:23;;;;;;;4.17;1.00;;;;;;;10.44;81.70;95539.00;5001845;28;20235;-79
2022/09/18 04:59:50;;;;;;;2.17;1.33;;;;;;;10.48;81.80;95540.25;5001747;28;20285;-80
2022/09/18 05:02:18;;;;;;;1.80;1.00;;;;;;;10.44;81.96;95542.38;5001890;28;20203;-80
2022/09/18 05:04:44;;;;;;;3.27;1.20;;;;;;;10.49;81.40;95547.78;5017159;28;20667;-80
2022/09/18 05:07:11;;;;;;;1.87;1.10;;;;;;;10.49;81.29;95547.78;5021772;28;20245;-78
2022/09/18 05:09:37;;;;;;;1.67;1.13;;;;;;;10.56;80.88;95558.19;5022020;28;20249;-78
2022/09/18 05:12:04;;;;;;;2.20;1.13;;;;;;;10.57;81.36;95563.16;5020858;28;20675;-79
2022/09/18 05:14:30;;;;;;;3.70;1.20;;;;;;;10.53;80.77;95563.69;5021081;28;20206;-79
2022/09/18 05:16:58;;;;;;;2.50;1.10;;;;;;;10.52;81.05;95562.09;5021079;28;20235;-80
2022/09/18 05:19:25;;;;;;;3.60;1.10;;;;;;;10.58;80.97;95563.97;5020671;28;20318;-80
2022/09/18 05:21:51;;;;;;;1.37;1.10;;;;;;;10.54;80.52;95567.88;5029460;23;21076;-82
2022/09/18 05:24:18;;;;;;;2.60;1.07;;;;;;;10.51;80.85;95563.06;4993197;28;20219;-82
2022/09/18 05:26:44;;;;;;;3.43;1.60;;;;;;;10.56;81.00;95566.72;4994349;28;20348;-82
2022/09/18 05:29:11;;;;;;;3.27;1.30;;;;;;;10.59;80.20;95568.13;4994760;28;20211;-81
2022/09/18 05:31:37;;;;;;;3.03;1.43;;;;;;;10.63;80.24;95570.16;4995863;28;20202;-81
2022/09/18 05:34:05;;;;;;;1.57;1.03;;;;;;;10.67;80.32;95566.25;5013856;28;20218;-82
2022/09/18 05:36:31;;;;;;;2.97;1.30;;;;;;;10.61;79.82;95566.97;5014539;28;20230;-81
2022/09/18 05:38:58;;;;;;;3.70;1.40;;;;;;;10.68;79.99;95572.22;5015119;28;20626;-82
2022/09/18 05:41:24;;;;;;;3.53;1.10;;;;;;;10.68;79.68;95567.88;5014730;28;20226;-82
2022/09/18 05:43:51;;;;;;;3.57;1.40;;;;;;;10.65;79.45;95567.41;5014695;28;20202;-81
2022/09/18 05:46:17;;;;;;;2.90;1.23;;;;;;;10.67;79.65;95573.19;5014274;28;20235;-82
2022/09/18 05:48:45;;;;;;;3.60;1.43;;;;;;;10.74;79.20;95568.94;5014122;28;20268;-82
2022/09/18 05:51:13;;;;;;;1.73;1.13;;;;;;;10.78;79.31;95566.78;5012108;28;20230;-82
2022/09/18 05:53:40;;;;;;;3.83;1.30;;;;;;;10.75;79.07;95572.31;5014348;28;20269;-82
2022/09/18 05:56:07;;;;;;;4.57;1.40;;;;;;;10.69;79.31;95574.63;5014652;28;20237;-80
2022/09/18 05:58:34;;;;;;;2.73;1.20;;;;;;;10.75;79.33;95577.47;5015790;28;20694;-80
2022/09/18 06:01:03;;;;;;;3.57;1.33;;;;;;;10.77;79.10;95576.31;5015621;28;20229;-80
2022/09/18 06:03:29;;;;;;;3.73;1.37;;;;;;;10.79;79.41;95578.69;5009967;28;20219;-79
2022/09/18 06:05:56;;;;;;;4.10;1.10;;;;;;;10.87;79.34;95566.53;4995783;28;20285;-80
2022/09/18 06:08:23;;;;;;;3.27;1.30;;;;;;;10.75;79.81;95573.13;4997212;28;20215;-80
2022/09/18 06:10:50;;;;;;;1.30;1.20;;;;;;;10.75;79.88;95570.53;4999885;28;20202;-80
2022/09/18 06:13:18;;;;;;;2.40;1.33;;;;;;;10.80;79.60;95573.34;5000672;28;20234;-80
2022/09/18 06:15:46;;;;;;;4.77;1.37;;;;;;;10.83;79.41;95582.50;5000413;28;20231;-82
2022/09/18 06:18:13;;;;;;;3.20;1.50;;;;;;;10.87;79.55;95583.75;4999892;28;20239;-81
2022/09/18 06:20:41;;;;;;;4.53;1.40;;;;;;;10.84;79.64;95587.50;5000050;28;20255;-80
2022/09/18 06:23:08;;;;;;;2.37;1.10;;;;;;;10.83;79.41;95577.38;5012498;28;20219;-82
2022/09/18 06:25:35;;;;;;;2.20;1.20;;;;;;;10.81;79.38;95585.25;5018697;28;20230;-81
2022/09/18 06:28:05;;;;;;;5.70;1.73;;;;;;;10.77;79.17;95584.03;5019438;28;20206;-81
2022/09/18 06:30:33;;;;;;;3.10;1.20;;;;;;;10.71;79.49;95582.16;5017870;28;20306;-81
2022/09/18 06:33:01;;;;;;;1.90;1.30;;;;;;;10.76;79.75;95586.78;5018385;28;20741;-82
2022/09/18 06:35:27;;;;;;;5.23;1.60;;;;;;;10.72;79.87;95583.75;5018275;28;20231;-81
2022/09/18 06:37:54;;;;;;;3.17;1.40;;;;;;;10.77;79.85;95584.03;5018599;28;20409;-82
2022/09/18 06:40:20;;;;;;;2.80;1.27;;;;;;;10.74;79.51;95581.81;5017532;28;20288;-82
2022/09/18 06:42:48;;;;;;;3.47;1.10;;;;;;;10.63;80.07;95588.19;5018813;28;20277;-80
2022/09/18 06:45:14;;;;;;;2.57;1.40;;;;;;;10.69;80.70;95594.41;5018896;28;20293;-80
2022/09/18 06:47:41;;;;;;;8.30;1.57;;;;;;;10.68;81.56;95596.19;5018362;28;20261;-79
2022/09/18 06:50:08;;;;;;;2.40;1.30;;;;;;;10.70;81.23;95589.09;5019364;28;20613;-79
2022/09/18 06:52:35;;;;;;;3.20;1.50;;;;;;;10.68;81.41;95591.03;5017755;28;20219;-79
2022/09/18 06:55:01;;;;;;;4.40;1.17;;;;;;;10.68;82.00;95587.66;5018822;28;20237;-80
2022/09/18 06:57:27;;;;;;;2.63;1.30;;;;;;;10.65;81.36;95588.00;5018834;28;20290;-79
2022/09/18 06:59:55;;;;;;;4.43;1.27;;;;;;;10.67;81.98;95594.59;5019010;28;20223;-80
2022/09/18 07:02:22;;;;;;;2.23;1.40;;;;;;;10.70;82.65;95601.16;5017481;28;20281;-80
2022/09/18 07:04:48;;;;;;;3.63;1.57;;;;;;;10.66;82.66;95595.56;5002340;28;20200;-79
2022/09/18 07:07:14;;;;;;;2.13;1.20;;;;;;;10.60;83.02;95591.13;4999416;28;20207;-79
2022/09/18 07:09:41;;;;;;;3.00;1.20;;;;;;;10.67;83.37;95594.59;4998552;28;20230;-79
2022/09/18 07:12:07;;;;;;;1.77;1.00;;;;;;;10.60;83.39;95600.59;4998575;28;20247;-80
2022/09/18 07:14:34;;;;;;;2.93;1.20;;;;;;;10.64;83.47;95594.13;4999320;28;20226;-79
2022/09/18 07:17:02;;;;;;;2.07;1.20;;;;;;;10.82;83.12;95589.44;4998108;28;20258;-79
2022/09/18 07:19:28;;;;;;;2.80;1.30;;;;;;;10.79;82.49;95597.50;4998757;28;20196;-80
2022/09/18 07:21:55;;;;;;;2.33;1.50;;;;;;;10.80;83.19;95603.47;4997665;28;20286;-80
2022/09/18 07:24:21;;;;;;;1.53;1.23;;;;;;;10.87;83.29;95607.75;5017537;28;20823;-80
2022/09/18 07:26:47;;;;;;;4.73;1.30;;;;;;;10.91;82.38;95601.25;5017921;28;20292;-79
2022/09/18 07:29:14;;;;;;;4.80;1.63;;;;;;;11.01;82.51;95616.44;5018161;28;20715;-79
2022/09/18 07:31:40;;;;;;;3.90;1.43;;;;;;;10.91;83.35;95611.56;5017528;28;20199;-80
2022/09/18 07:34:08;;;;;;;1.70;1.30;;;;;;;10.83;82.64;95614.22;5018212;28;20229;-80
2022/09/18 07:36:34;;;;;;;3.50;1.60;;;;;;;10.79;84.11;95612.97;5017531;28;20234;-80
2022/09/18 07:39:01;;;;;;;1.80;1.00;;;;;;;10.83;84.36;95611.66;5018568;28;20706;-80
2022/09/18 07:41:27;;;;;;;1.83;1.40;;;;;;;10.83;83.88;95611.66;5017938;28;20227;-80
2022/09/18 07:43:56;;;;;;;1.90;1.20;;;;;;;10.83;84.01;95623.72;5017256;28;20211;-80
2022/09/18 07:46:23;;;;;;;1.57;1.23;;;;;;;10.84;84.54;95610.66;5017716;28;20300;-79
2022/09/18 07:48:49;;;;;;;2.80;1.20;;;;;;;10.93;84.40;95611.41;5019341;28;20703;-79
2022/09/18 07:51:17;;;;;;;1.57;1.33;;;;;;;10.88;84.42;95606.78;5016482;28;20199;-80
2022/09/18 07:53:44;;;;;;;2.67;1.10;;;;;;;10.89;84.44;95615.28;5018457;28;20230;-79
2022/09/18 07:56:12;;;;;;;2.37;1.30;;;;;;;10.89;84.35;95608.38;5017846;28;20234;-80
2022/09/18 07:58:38;;;;;;;2.67;1.20;;;;;;;10.93;84.42;95621.69;5018175;28;20202;-80
2022/09/18 08:01:06;;;;;;;2.20;1.50;;;;;;;10.90;84.66;95612.53;5016449;28;20293;-80
2022/09/18 08:03:32;;;;;;;2.13;1.27;;;;;;;10.89;85.91;95618.66;5011774;28;20227;-79
2022/09/18 08:05:59;;;;;;;1.90;1.13;;;;;;;10.85;85.77;95611.47;4996578;28;20711;-80
2022/09/18 08:08:28;;;;;;;2.67;1.23;;;;;;;10.94;85.40;95615.56;4995281;28;20250;-80
2022/09/18 08:10:56;;;;;;;1.93;1.10;;;;;;;10.91;85.30;95621.06;4996607;28;20195;-80
2022/09/18 08:13:22;;;;;;;1.57;1.10;;;;;;;10.96;85.06;95618.78;4995204;28;20319;-79
2022/09/18 08:15:49;;;;;;;1.50;1.30;;;;;;;11.00;85.58;95627.72;4994622;28;20590;-79
2022/09/18 08:18:16;;;;;;;1.87;1.20;;;;;;;11.02;85.69;95618.84;4994637;28;20656;-79
2022/09/18 08:20:45;;;;;;;1.40;1.00;;;;;;;11.07;85.16;95618.31;4995465;28;20250;-79
2022/09/18 08:23:12;;;;;;;1.90;1.20;;;;;;;11.09;85.09;95624.09;4997742;28;20234;-80
2022/09/18 08:25:40;;;;;;;1.53;1.20;;;;;;;11.11;85.05;95618.75;4994492;28;20238;-80
2022/09/18 08:28:07;;;;;;;2.10;1.00;;;;;;;11.12;85.82;95617.78;4994346;28;20258;-80
2022/09/18 08:30:35;;;;;;;1.57;1.20;;;;;;;11.24;84.38;95616.34;4994285;28;20235;-79
2022/09/18 08:33:03;;;;;;;3.57;1.50;;;;;;;11.17;84.51;95618.03;4994410;28;20235;-80
2022/09/18 08:35:30;;;;;;;1.77;1.17;;;;;;;11.29;83.60;95625.16;4994581;28;20231;-79
2022/09/18 08:37:57;;;;;;;1.73;1.37;;;;;;;11.23;84.12;95615.53;4995292;28;20267;-79
2022/09/18 08:40:45;;;;;;;2.20;1.57;;;;;;;11.16;83.82;95613.88;4994599;28;20238;-79
2022/09/18 08:43:20;;;;;;;1.70;1.30;;;;;;;11.21;83.37;95616.69;4996656;28;20238;-79
2022/09/18 08:45:54;;;;;;;3.40;1.43;;;;;;;11.26;83.31;95614.38;4995618;28;20293;-79
2022/09/18 08:48:26;;;;;;;3.13;1.30;;;;;;;11.29;82.75;95611.47;4995493;28;20202;-80
2022/09/18 08:50:56;;;;;;;1.70;1.27;;;;;;;11.22;82.90;95623.44;4993946;28;20204;-78
2022/09/18 08:53:29;;;;;;;2.33;1.30;;;;;;;11.32;83.06;95618.84;4993866;28;20307;-79
2022/09/18 08:55:59;;;;;;;1.50;1.30;;;;;;;11.25;82.98;95621.31;4994984;28;20235;-80
2022/09/18 08:58:33;;;;;;;3.27;1.27;;;;;;;11.20;82.58;95618.47;4995684;28;20203;-80
2022/09/18 09:01:05;;;;;;;2.73;1.20;;;;;;;11.22;83.57;95610.56;4994553;28;20223;-79
2022/09/18 09:03:40;;;;;;;2.43;1.30;;;;;;;11.30;82.80;95619.00;4994597;28;20711;-80
2022/09/18 09:06:20;;;;;;;5.57;3.90;;;;;;;11.33;82.18;95618.66;4995005;28;20265;-79
2022/09/18 09:09:31;;;;;;;2.20;1.20;;;;;;;11.39;82.00;95617.91;4994826;28;20765;-80
2022/09/18 09:12:08;;;;;;;3.17;1.37;;;;;;;11.39;81.46;95630.00;4994883;28;20662;-80
2022/09/18 09:14:56;;;;;;;2.17;1.10;;;;;;;11.42;80.61;95630.44;4995805;28;20277;-80
2022/09/18 09:17:38;;;;;;;1.57;1.37;;;;;;;11.47;82.15;95631.69;4994707;28;20636;-80
2022/09/18 09:20:17;;;;;;;2.77;1.17;;;;;;;11.36;78.80;95628.59;4994367;28;20841;-79
2022/09/18 09:22:49;;;;;;;3.20;1.20;;;;;;;11.44;79.46;95614.81;4993778;28;20234;-78
2022/09/18 09:25:20;;;;;;;1.40;1.03;;;;;;;11.45;79.81;95611.25;4993614;28;20227;-79
2022/09/18 09:27:51;;;;;;;1.10;1.00;;;;;;;11.48;79.29;95623.78;4994285;28;20558;-79
2022/09/18 09:30:20;;;;;;;3.27;1.40;;;;;;;11.53;79.34;95618.09;4994733;28;20204;-80
2022/09/18 09:32:51;;;;;;;1.40;1.10;;;;;;;11.52;78.66;95616.50;4994614;28;20227;-80
2022/09/18 09:35:25;;;;;;;2.10;1.30;;;;;;;11.51;78.53;95620.03;4994399;28;20231;-80
2022/09/18 09:37:52;;;;;;;3.10;1.53;;;;;;;11.53;78.60;95618.09;4993989;28;20671;-79
2022/09/18 09:40:24;;;;;;;3.57;1.50;;;;;;;11.60;78.93;95603.47;4993095;28;20291;-79
2022/09/18 09:42:55;;;;;;;4.00;1.47;;;;;;;11.58;77.62;95603.66;4994761;28;20271;-79
2022/09/18 09:45:28;;;;;;;3.73;1.40;;;;;;;11.58;78.44;95608.00;4993684;28;20242;-79
2022/09/18 09:48:02;;;;;;;2.80;1.40;;;;;;;11.66;78.31;95611.28;4994808;28;20298;-80
2022/09/18 09:50:48;;;;;;;3.13;1.20;;;;;;;11.71;77.72;95619.28;4995019;28;20208;-82
2022/09/18 09:53:15;;;;;;;1.83;1.40;;;;;;;11.75;78.65;95617.91;4991833;28;20231;-79
2022/09/18 09:55:53;;;;;;;1.97;1.07;;;;;;;11.72;77.29;95612.34;4992151;28;20231;-80
2022/09/18 09:58:34;;;;;;;1.53;1.10;;;;;;;11.73;77.35;95619.91;4992595;28;20324;-79
2022/09/18 10:01:17;;;;;;;3.40;2.40;;;;;;;11.69;77.38;95616.09;4992392;28;20219;-80
2022/09/18 10:03:59;;;;;;;2.13;1.53;;;;;;;11.73;77.89;95621.69;4993961;28;20250;-79
2022/09/18 10:06:40;;;;;;;3.53;1.43;;;;;;;11.76;77.97;95616.16;4991330;28;20235;-81
2022/09/18 10:09:15;;;;;;;1.57;1.10;;;;;;;11.87;77.47;95615.69;4992615;28;20765;-80
2022/09/18 10:11:49;;;;;;;4.80;1.33;;;;;;;11.81;75.64;95608.69;4991814;28;20262;-80
2022/09/18 10:14:19;;;;;;;6.07;1.20;;;;;;;11.84;76.81;95610.09;4992782;28;20281;-79
2022/09/18 10:16:51;;;;;;;3.07;1.40;;;;;;;11.87;76.32;95613.13;4992298;28;20227;-80
2022/09/18 10:19:20;;;;;;;2.57;1.20;;;;;;;11.91;76.74;95622.09;4991926;28;20207;-80
2022/09/18 10:21:49;;;;;;;4.37;1.03;;;;;;;12.00;76.53;95615.81;4991785;28;20278;-80
2022/09/18 10:24:22;;;;;;;1.67;1.10;;;;;;;12.02;76.30;95610.47;4972839;28;20672;-80
2022/09/18 10:26:53;;;;;;;3.00;1.20;;;;;;;11.98;75.25;95617.78;4972421;28;20723;-79
2022/09/18 10:29:20;;;;;;;4.07;1.30;;;;;;;11.97;75.27;95623.13;4973068;28;20232;-80
2022/09/18 10:31:49;;;;;;;2.63;1.20;;;;;;;12.01;75.82;95626.94;4972657;28;20228;-80
2022/09/18 10:34:32;;;;;;;1.90;1.10;;;;;;;12.13;75.58;95624.66;4972079;28;20255;-80
2022/09/18 10:36:59;;;;;;;2.43;1.80;;;;;;;12.17;75.29;95613.00;4972251;28;20235;-79
2022/09/18 10:39:28;;;;;;;2.30;1.30;;;;;;;12.13;75.19;95616.91;4972677;28;20208;-80
2022/09/18 10:41:57;;;;;;;2.00;1.10;;;;;;;12.08;74.19;95614.91;4972306;28;20255;-79
2022/09/18 10:44:27;;;;;;;2.47;1.43;;;;;;;12.12;74.64;95615.34;4972588;28;20232;-79
2022/09/18 10:46:59;;;;;;;3.07;1.00;;;;;;;12.21;74.21;95616.81;4972061;28;20236;-79
2022/09/18 10:49:30;;;;;;;1.43;1.27;;;;;;;12.07;73.43;95608.16;4972958;28;20204;-80
2022/09/18 10:52:23;;;;;;;1.07;0.90;;;;;;;11.92;73.43;95603.06;4971702;28;20303;-80
2022/09/18 10:54:58;;;;;;;2.50;1.00;;;;;;;12.03;74.30;95612.88;4972398;28;20268;-80
2022/09/18 10:57:26;;;;;;;2.70;1.10;;;;;;;12.06;74.69;95606.56;4976106;28;20314;-80
2022/09/18 10:59:53;;;;;;;1.53;1.20;;;;;;;12.06;74.48;95612.50;4976440;28;20204;-80
2022/09/18 11:02:25;;;;;;;1.93;1.07;;;;;;;12.05;74.86;95602.38;4976060;28;20663;-80
2022/09/18 11:04:52;;;;;;;1.50;1.20;;;;;;;11.97;74.57;95613.59;4991691;28;20247;-79
2022/09/18 11:07:19;;;;;;;2.17;1.10;;;;;;;11.99;74.97;95614.22;4995363;28;20278;-80
2022/09/18 11:09:46;;;;;;;2.83;1.40;;;;;;;12.06;76.19;95606.56;4994973;28;20204;-79
2022/09/18 11:12:16;;;;;;;2.53;1.00;;;;;;;12.08;76.21;95612.34;4995599;28;20318;-80
2022/09/18 11:14:45;;;;;;;1.10;1.00;;;;;;;12.11;76.47;95604.22;4995001;28;20254;-79
2022/09/18 11:17:23;;;;;;;2.23;1.10;;;;;;;12.03;76.53;95604.34;4996129;28;20200;-79
2022/09/18 11:19:51;;;;;;;1.40;1.00;;;;;;;12.09;76.56;95604.41;4994940;28;20574;-79
2022/09/18 11:22:34;;;;;;;3.17;1.20;;;;;;;12.18;77.19;95601.69;4994771;28;20832;-79
2022/09/18 11:25:17;;;;;;;1.70;1.17;;;;;;;12.19;76.95;95611.03;4996934;28;20207;-79
2022/09/18 11:27:46;;;;;;;2.77;1.30;;;;;;;12.34;77.58;95609.97;4997337;28;20239;-80
2022/09/18 11:30:14;;;;;;;2.53;1.83;;;;;;;12.46;76.88;95615.44;4996218;28;20675;-80
2022/09/18 11:32:45;;;;;;;2.37;1.20;;;;;;;12.49;76.24;95602.16;4997505;28;20255;-79
2022/09/18 11:35:15;;;;;;;2.33;1.47;;;;;;;12.50;76.07;95596.00;4996157;28;20606;-80
2022/09/18 11:37:47;;;;;;;2.97;1.70;;;;;;;12.46;75.36;95592.19;4997329;28;20207;-80
2022/09/18 11:40:21;;;;;;;1.23;1.10;;;;;;;12.44;74.93;95589.00;4995993;28;20250;-80
2022/09/18 11:42:51;;;;;;;1.50;1.10;;;;;;;12.51;75.34;95587.25;4996418;28;20227;-79
2022/09/18 11:45:32;;;;;;;1.30;1.17;;;;;;;12.42;74.84;95586.59;4995745;28;20361;-80